sensor_id;sensor_type;location;lat;lon;timestamp;temperature;humidity
22787;DHT22;63134;52.020;4.714;2023-06-14T00:00:30;18.60;62.20
22787;DHT22;63134;52.020;4.714;2023-06-14T00:03:16;18.60;62.50
22787;DHT22;63134;52.020;4.714;2023-06-14T00:06:03;18.50;63.00
22787;DHT22;63134;52.020;4.714;2023-06-14T00:08:49;18.50;63.40
22787;DHT22;63134;52.020;4.714;2023-06-14T00:11:35;18.50;63.70
22787;DHT22;63134;52.020;4.714;2023-06-14T00:14:20;18.50;63.90
22787;DHT22;63134;52.020;4.714;2023-06-14T00:17:05;18.40;64.80
22787;DHT22;63134;52.020;4.714;2023-06-14T00:19:52;18.40;65.00
22787;DHT22;63134;52.020;4.714;2023-06-14T00:22:49;18.30;65.40
22787;DHT22;63134;52.020;4.714;2023-06-14T00:25:35;18.30;65.60
22787;DHT22;63134;52.020;4.714;2023-06-14T00:28:23;18.30;66.10
22787;DHT22;63134;52.020;4.714;2023-06-14T00:31:08;18.30;66.40
22787;DHT22;63134;52.020;4.714;2023-06-14T00:33:54;18.20;66.50
22787;DHT22;63134;52.020;4.714;2023-06-14T00:36:39;18.20;66.50
22787;DHT22;63134;52.020;4.714;2023-06-14T00:39:24;18.20;66.90
22787;DHT22;63134;52.020;4.714;2023-06-14T00:42:10;18.20;66.90
22787;DHT22;63134;52.020;4.714;2023-06-14T00:44:58;18.10;67.30
22787;DHT22;63134;52.020;4.714;2023-06-14T00:47:46;18.10;67.30
22787;DHT22;63134;52.020;4.714;2023-06-14T00:50:32;18.10;67.50
22787;DHT22;63134;52.020;4.714;2023-06-14T00:53:19;18.00;68.00
22787;DHT22;63134;52.020;4.714;2023-06-14T00:56:05;18.00;68.10
22787;DHT22;63134;52.020;4.714;2023-06-14T00:58:51;17.90;68.50
22787;DHT22;63134;52.020;4.714;2023-06-14T01:01:37;17.90;68.50
22787;DHT22;63134;52.020;4.714;2023-06-14T01:04:26;17.80;68.60
22787;DHT22;63134;52.020;4.714;2023-06-14T01:07:28;17.80;68.60
22787;DHT22;63134;52.020;4.714;2023-06-14T01:13:38;17.70;68.90
22787;DHT22;63134;52.020;4.714;2023-06-14T01:16:24;17.70;68.60
22787;DHT22;63134;52.020;4.714;2023-06-14T01:19:12;17.70;69.50
22787;DHT22;63134;52.020;4.714;2023-06-14T01:22:01;17.60;68.80
22787;DHT22;63134;52.020;4.714;2023-06-14T01:24:46;17.60;68.80
22787;DHT22;63134;52.020;4.714;2023-06-14T01:27:35;17.50;68.40
22787;DHT22;63134;52.020;4.714;2023-06-14T01:30:23;17.50;68.50
22787;DHT22;63134;52.020;4.714;2023-06-14T01:33:15;17.50;68.40
22787;DHT22;63134;52.020;4.714;2023-06-14T01:36:02;17.50;68.00
22787;DHT22;63134;52.020;4.714;2023-06-14T01:38:48;17.50;67.50
22787;DHT22;63134;52.020;4.714;2023-06-14T01:41:37;17.50;67.40
22787;DHT22;63134;52.020;4.714;2023-06-14T01:44:23;17.40;67.20
22787;DHT22;63134;52.020;4.714;2023-06-14T01:47:09;17.40;67.00
22787;DHT22;63134;52.020;4.714;2023-06-14T01:49:56;17.40;67.00
22787;DHT22;63134;52.020;4.714;2023-06-14T01:52:42;17.40;66.80
22787;DHT22;63134;52.020;4.714;2023-06-14T01:55:28;17.40;66.70
22787;DHT22;63134;52.020;4.714;2023-06-14T01:58:14;17.30;66.40
22787;DHT22;63134;52.020;4.714;2023-06-14T02:01:01;17.30;66.40
22787;DHT22;63134;52.020;4.714;2023-06-14T02:03:47;17.30;66.50
22787;DHT22;63134;52.020;4.714;2023-06-14T02:06:34;17.30;66.30
22787;DHT22;63134;52.020;4.714;2023-06-14T02:09:19;17.20;65.80
22787;DHT22;63134;52.020;4.714;2023-06-14T02:12:05;17.20;65.80
22787;DHT22;63134;52.020;4.714;2023-06-14T02:14:51;17.20;65.80
22787;DHT22;63134;52.020;4.714;2023-06-14T02:17:36;17.20;65.70
22787;DHT22;63134;52.020;4.714;2023-06-14T02:20:24;17.10;65.70
22787;DHT22;63134;52.020;4.714;2023-06-14T02:23:09;17.10;65.70
22787;DHT22;63134;52.020;4.714;2023-06-14T02:25:55;17.10;65.80
22787;DHT22;63134;52.020;4.714;2023-06-14T02:28:41;17.10;65.60
22787;DHT22;63134;52.020;4.714;2023-06-14T02:31:27;17.00;65.50
22787;DHT22;63134;52.020;4.714;2023-06-14T02:34:13;17.00;65.50
22787;DHT22;63134;52.020;4.714;2023-06-14T02:36:58;17.10;65.60
22787;DHT22;63134;52.020;4.714;2023-06-14T02:39:44;17.00;65.60
22787;DHT22;63134;52.020;4.714;2023-06-14T02:42:30;17.00;65.80
22787;DHT22;63134;52.020;4.714;2023-06-14T02:45:18;17.00;65.70
22787;DHT22;63134;52.020;4.714;2023-06-14T02:48:05;16.90;65.50
22787;DHT22;63134;52.020;4.714;2023-06-14T02:50:51;16.90;66.00
22787;DHT22;63134;52.020;4.714;2023-06-14T02:53:36;16.90;66.70
22787;DHT22;63134;52.020;4.714;2023-06-14T02:56:22;16.80;66.90
22787;DHT22;63134;52.020;4.714;2023-06-14T02:59:08;16.80;66.90
22787;DHT22;63134;52.020;4.714;2023-06-14T03:01:56;16.80;67.30
22787;DHT22;63134;52.020;4.714;2023-06-14T03:04:45;16.80;67.80
22787;DHT22;63134;52.020;4.714;2023-06-14T03:07:35;16.70;68.40
22787;DHT22;63134;52.020;4.714;2023-06-14T03:10:22;16.70;68.60
22787;DHT22;63134;52.020;4.714;2023-06-14T03:13:09;16.70;68.80
22787;DHT22;63134;52.020;4.714;2023-06-14T03:15:56;16.70;69.00
22787;DHT22;63134;52.020;4.714;2023-06-14T03:18:43;16.60;69.70
22787;DHT22;63134;52.020;4.714;2023-06-14T03:21:29;16.60;69.90
22787;DHT22;63134;52.020;4.714;2023-06-14T03:24:17;16.60;70.00
22787;DHT22;63134;52.020;4.714;2023-06-14T03:27:05;16.50;70.20
22787;DHT22;63134;52.020;4.714;2023-06-14T03:29:51;16.50;70.60
22787;DHT22;63134;52.020;4.714;2023-06-14T03:32:37;16.50;70.70
22787;DHT22;63134;52.020;4.714;2023-06-14T03:35:24;16.50;70.80
22787;DHT22;63134;52.020;4.714;2023-06-14T03:38:10;16.40;71.20
22787;DHT22;63134;52.020;4.714;2023-06-14T03:40:56;16.40;70.80
22787;DHT22;63134;52.020;4.714;2023-06-14T03:43:42;16.40;70.80
22787;DHT22;63134;52.020;4.714;2023-06-14T03:46:28;16.40;70.90
22787;DHT22;63134;52.020;4.714;2023-06-14T03:49:14;16.40;70.70
22787;DHT22;63134;52.020;4.714;2023-06-14T03:52:06;16.40;70.60
22787;DHT22;63134;52.020;4.714;2023-06-14T03:54:53;16.40;70.60
22787;DHT22;63134;52.020;4.714;2023-06-14T03:57:45;16.40;70.50
22787;DHT22;63134;52.020;4.714;2023-06-14T04:00:34;16.40;70.60
22787;DHT22;63134;52.020;4.714;2023-06-14T04:03:21;16.40;70.20
22787;DHT22;63134;52.020;4.714;2023-06-14T04:06:09;16.50;69.80
22787;DHT22;63134;52.020;4.714;2023-06-14T04:08:55;16.50;69.50
22787;DHT22;63134;52.020;4.714;2023-06-14T04:11:41;16.50;69.00
22787;DHT22;63134;52.020;4.714;2023-06-14T04:14:26;16.60;69.00
22787;DHT22;63134;52.020;4.714;2023-06-14T04:17:12;16.60;68.90
22787;DHT22;63134;52.020;4.714;2023-06-14T04:20:02;16.60;68.60
22787;DHT22;63134;52.020;4.714;2023-06-14T04:22:50;16.60;68.60
22787;DHT22;63134;52.020;4.714;2023-06-14T04:25:36;16.60;68.60
22787;DHT22;63134;52.020;4.714;2023-06-14T04:28:22;16.60;68.50
22787;DHT22;63134;52.020;4.714;2023-06-14T04:31:29;16.70;68.50
22787;DHT22;63134;52.020;4.714;2023-06-14T04:34:23;16.70;68.00
22787;DHT22;63134;52.020;4.714;2023-06-14T04:37:12;16.70;67.90
22787;DHT22;63134;52.020;4.714;2023-06-14T04:40:02;16.70;68.00
22787;DHT22;63134;52.020;4.714;2023-06-14T04:42:50;16.80;67.90
22787;DHT22;63134;52.020;4.714;2023-06-14T04:45:37;16.70;67.80
22787;DHT22;63134;52.020;4.714;2023-06-14T04:48:23;16.80;67.80
22787;DHT22;63134;52.020;4.714;2023-06-14T04:51:09;16.80;67.90
22787;DHT22;63134;52.020;4.714;2023-06-14T04:53:55;16.80;67.80
22787;DHT22;63134;52.020;4.714;2023-06-14T04:56:44;16.80;67.50
22787;DHT22;63134;52.020;4.714;2023-06-14T04:59:33;16.80;67.60
22787;DHT22;63134;52.020;4.714;2023-06-14T05:02:24;16.80;67.40
22787;DHT22;63134;52.020;4.714;2023-06-14T05:05:11;16.80;67.30
22787;DHT22;63134;52.020;4.714;2023-06-14T05:07:58;16.90;67.40
22787;DHT22;63134;52.020;4.714;2023-06-14T05:10:43;16.90;67.40
22787;DHT22;63134;52.020;4.714;2023-06-14T05:13:29;16.90;67.40
22787;DHT22;63134;52.020;4.714;2023-06-14T05:16:14;16.90;67.50
22787;DHT22;63134;52.020;4.714;2023-06-14T05:19:04;16.90;67.50
22787;DHT22;63134;52.020;4.714;2023-06-14T05:21:49;17.00;67.50
22787;DHT22;63134;52.020;4.714;2023-06-14T05:24:35;17.00;67.40
22787;DHT22;63134;52.020;4.714;2023-06-14T05:27:20;17.00;67.30
22787;DHT22;63134;52.020;4.714;2023-06-14T05:30:07;17.10;67.30
22787;DHT22;63134;52.020;4.714;2023-06-14T05:32:56;17.10;67.30
22787;DHT22;63134;52.020;4.714;2023-06-14T05:35:44;17.10;67.00
22787;DHT22;63134;52.020;4.714;2023-06-14T05:38:30;17.10;66.80
22787;DHT22;63134;52.020;4.714;2023-06-14T05:41:15;17.20;66.60
22787;DHT22;63134;52.020;4.714;2023-06-14T05:44:01;17.20;66.40
22787;DHT22;63134;52.020;4.714;2023-06-14T05:46:50;17.30;66.10
22787;DHT22;63134;52.020;4.714;2023-06-14T05:49:38;17.30;65.70
22787;DHT22;63134;52.020;4.714;2023-06-14T05:52:24;17.40;65.20
22787;DHT22;63134;52.020;4.714;2023-06-14T05:55:10;17.40;64.30
22787;DHT22;63134;52.020;4.714;2023-06-14T05:57:58;17.50;64.20
22787;DHT22;63134;52.020;4.714;2023-06-14T06:00:43;17.50;63.90
22787;DHT22;63134;52.020;4.714;2023-06-14T06:03:29;17.60;63.60
22787;DHT22;63134;52.020;4.714;2023-06-14T06:06:14;17.60;63.50
22787;DHT22;63134;52.020;4.714;2023-06-14T06:09:01;17.70;63.40
22787;DHT22;63134;52.020;4.714;2023-06-14T06:11:47;17.70;63.10
22787;DHT22;63134;52.020;4.714;2023-06-14T06:14:38;17.80;63.20
22787;DHT22;63134;52.020;4.714;2023-06-14T06:17:25;17.80;62.90
22787;DHT22;63134;52.020;4.714;2023-06-14T06:20:11;17.90;62.40
22787;DHT22;63134;52.020;4.714;2023-06-14T06:22:58;18.00;62.10
22787;DHT22;63134;52.020;4.714;2023-06-14T06:25:44;18.00;61.90
22787;DHT22;63134;52.020;4.714;2023-06-14T06:28:29;18.10;61.70
22787;DHT22;63134;52.020;4.714;2023-06-14T06:31:14;18.10;61.50
22787;DHT22;63134;52.020;4.714;2023-06-14T06:34:00;18.20;61.80
22787;DHT22;63134;52.020;4.714;2023-06-14T06:36:45;18.20;61.80
22787;DHT22;63134;52.020;4.714;2023-06-14T06:39:31;18.30;61.20
22787;DHT22;63134;52.020;4.714;2023-06-14T06:42:16;18.40;61.90
22787;DHT22;63134;52.020;4.714;2023-06-14T06:45:02;18.50;60.60
22787;DHT22;63134;52.020;4.714;2023-06-14T06:47:48;18.60;60.10
22787;DHT22;63134;52.020;4.714;2023-06-14T06:50:37;18.60;59.70
22787;DHT22;63134;52.020;4.714;2023-06-14T06:53:22;18.70;59.30
22787;DHT22;63134;52.020;4.714;2023-06-14T06:56:24;18.80;59.00
22787;DHT22;63134;52.020;4.714;2023-06-14T06:59:10;18.90;58.50
22787;DHT22;63134;52.020;4.714;2023-06-14T07:02:01;19.00;58.70
22787;DHT22;63134;52.020;4.714;2023-06-14T07:04:47;19.10;58.40
22787;DHT22;63134;52.020;4.714;2023-06-14T07:07:32;19.20;57.00
22787;DHT22;63134;52.020;4.714;2023-06-14T07:10:18;19.20;56.20
22787;DHT22;63134;52.020;4.714;2023-06-14T07:13:04;19.30;56.40
22787;DHT22;63134;52.020;4.714;2023-06-14T07:15:49;19.40;55.90
22787;DHT22;63134;52.020;4.714;2023-06-14T07:18:35;19.50;55.80
22787;DHT22;63134;52.020;4.714;2023-06-14T07:21:20;19.60;55.60
22787;DHT22;63134;52.020;4.714;2023-06-14T07:24:06;19.60;55.30
22787;DHT22;63134;52.020;4.714;2023-06-14T07:26:53;19.70;54.60
22787;DHT22;63134;52.020;4.714;2023-06-14T07:29:38;19.80;54.40
22787;DHT22;63134;52.020;4.714;2023-06-14T07:32:24;19.90;54.50
22787;DHT22;63134;52.020;4.714;2023-06-14T07:35:10;19.90;54.50
22787;DHT22;63134;52.020;4.714;2023-06-14T07:37:59;20.00;54.50
22787;DHT22;63134;52.020;4.714;2023-06-14T07:40:44;20.10;54.40
22787;DHT22;63134;52.020;4.714;2023-06-14T07:43:30;20.10;54.10
22787;DHT22;63134;52.020;4.714;2023-06-14T07:46:16;20.20;53.60
22787;DHT22;63134;52.020;4.714;2023-06-14T07:49:02;20.20;53.60
22787;DHT22;63134;52.020;4.714;2023-06-14T07:51:47;20.30;53.70
22787;DHT22;63134;52.020;4.714;2023-06-14T07:54:33;20.40;53.40
22787;DHT22;63134;52.020;4.714;2023-06-14T07:57:18;20.50;52.90
22787;DHT22;63134;52.020;4.714;2023-06-14T08:00:07;20.50;52.90
22787;DHT22;63134;52.020;4.714;2023-06-14T08:02:58;20.60;53.20
22787;DHT22;63134;52.020;4.714;2023-06-14T08:05:45;20.70;53.10
22787;DHT22;63134;52.020;4.714;2023-06-14T08:08:31;20.80;53.40
22787;DHT22;63134;52.020;4.714;2023-06-14T08:11:17;20.90;53.00
22787;DHT22;63134;52.020;4.714;2023-06-14T08:14:03;21.00;52.70
22787;DHT22;63134;52.020;4.714;2023-06-14T08:16:48;21.00;52.10
22787;DHT22;63134;52.020;4.714;2023-06-14T08:19:34;21.10;51.80
22787;DHT22;63134;52.020;4.714;2023-06-14T08:22:20;21.20;52.00
22787;DHT22;63134;52.020;4.714;2023-06-14T08:25:07;21.30;51.50
22787;DHT22;63134;52.020;4.714;2023-06-14T08:27:56;21.40;51.20
22787;DHT22;63134;52.020;4.714;2023-06-14T08:30:44;21.50;50.60
22787;DHT22;63134;52.020;4.714;2023-06-14T08:33:29;21.60;50.20
22787;DHT22;63134;52.020;4.714;2023-06-14T08:36:18;21.60;49.80
22787;DHT22;63134;52.020;4.714;2023-06-14T08:39:04;21.60;49.90
22787;DHT22;63134;52.020;4.714;2023-06-14T08:41:50;21.80;49.50
22787;DHT22;63134;52.020;4.714;2023-06-14T08:44:37;21.80;48.90
22787;DHT22;63134;52.020;4.714;2023-06-14T08:47:23;21.90;48.40
22787;DHT22;63134;52.020;4.714;2023-06-14T08:50:11;22.00;48.40
22787;DHT22;63134;52.020;4.714;2023-06-14T08:53:13;22.00;48.20
22787;DHT22;63134;52.020;4.714;2023-06-14T08:56:05;22.20;47.90
22787;DHT22;63134;52.020;4.714;2023-06-14T08:58:56;22.20;47.60
22787;DHT22;63134;52.020;4.714;2023-06-14T09:01:42;22.30;47.40
22787;DHT22;63134;52.020;4.714;2023-06-14T09:04:48;22.40;47.00
22787;DHT22;63134;52.020;4.714;2023-06-14T09:07:34;22.50;47.20
22787;DHT22;63134;52.020;4.714;2023-06-14T09:10:28;22.50;47.00
22787;DHT22;63134;52.020;4.714;2023-06-14T09:13:21;22.60;47.20
22787;DHT22;63134;52.020;4.714;2023-06-14T09:16:07;22.70;47.00
22787;DHT22;63134;52.020;4.714;2023-06-14T09:18:54;22.70;46.60
22787;DHT22;63134;52.020;4.714;2023-06-14T09:21:42;22.80;46.10
22787;DHT22;63134;52.020;4.714;2023-06-14T09:24:28;22.80;46.00
22787;DHT22;63134;52.020;4.714;2023-06-14T09:27:16;22.90;45.50
22787;DHT22;63134;52.020;4.714;2023-06-14T09:30:05;23.00;45.40
22787;DHT22;63134;52.020;4.714;2023-06-14T09:32:54;23.00;45.10
22787;DHT22;63134;52.020;4.714;2023-06-14T09:35:41;23.00;44.70
22787;DHT22;63134;52.020;4.714;2023-06-14T09:38:27;23.20;44.70
22787;DHT22;63134;52.020;4.714;2023-06-14T09:41:12;23.20;44.30
22787;DHT22;63134;52.020;4.714;2023-06-14T09:43:58;23.20;44.30
22787;DHT22;63134;52.020;4.714;2023-06-14T09:46:45;23.20;44.40
22787;DHT22;63134;52.020;4.714;2023-06-14T09:49:34;23.30;44.30
22787;DHT22;63134;52.020;4.714;2023-06-14T09:52:21;23.40;44.20
22787;DHT22;63134;52.020;4.714;2023-06-14T09:55:13;23.50;44.00
22787;DHT22;63134;52.020;4.714;2023-06-14T09:58:00;23.60;43.80
22787;DHT22;63134;52.020;4.714;2023-06-14T10:00:55;23.70;42.80
22787;DHT22;63134;52.020;4.714;2023-06-14T10:03:42;23.70;42.00
22787;DHT22;63134;52.020;4.714;2023-06-14T10:06:40;23.80;40.70
22787;DHT22;63134;52.020;4.714;2023-06-14T10:09:27;23.80;40.00
22787;DHT22;63134;52.020;4.714;2023-06-14T10:12:17;23.90;39.10
22787;DHT22;63134;52.020;4.714;2023-06-14T10:15:10;24.00;38.50
22787;DHT22;63134;52.020;4.714;2023-06-14T10:21:35;24.10;38.80
22787;DHT22;63134;52.020;4.714;2023-06-14T10:24:30;24.10;39.10
22787;DHT22;63134;52.020;4.714;2023-06-14T10:27:17;24.30;38.80
22787;DHT22;63134;52.020;4.714;2023-06-14T10:30:09;24.30;38.40
22787;DHT22;63134;52.020;4.714;2023-06-14T10:33:08;24.30;38.30
22787;DHT22;63134;52.020;4.714;2023-06-14T10:36:27;24.40;38.40
22787;DHT22;63134;52.020;4.714;2023-06-14T10:39:17;24.50;38.90
22787;DHT22;63134;52.020;4.714;2023-06-14T10:42:06;24.60;38.30
22787;DHT22;63134;52.020;4.714;2023-06-14T10:44:57;24.60;37.70
22787;DHT22;63134;52.020;4.714;2023-06-14T10:47:49;24.70;38.40
22787;DHT22;63134;52.020;4.714;2023-06-14T10:50:42;24.90;37.60
22787;DHT22;63134;52.020;4.714;2023-06-14T10:53:40;25.00;37.20
22787;DHT22;63134;52.020;4.714;2023-06-14T10:56:32;25.10;36.70
22787;DHT22;63134;52.020;4.714;2023-06-14T10:59:20;25.10;36.10
22787;DHT22;63134;52.020;4.714;2023-06-14T11:05:24;25.30;35.70
22787;DHT22;63134;52.020;4.714;2023-06-14T11:08:55;25.50;35.00
22787;DHT22;63134;52.020;4.714;2023-06-14T11:11:42;25.60;34.60
22787;DHT22;63134;52.020;4.714;2023-06-14T11:14:36;25.70;34.90
22787;DHT22;63134;52.020;4.714;2023-06-14T11:17:21;26.00;34.60
22787;DHT22;63134;52.020;4.714;2023-06-14T11:20:08;26.30;33.70
22787;DHT22;63134;52.020;4.714;2023-06-14T11:22:54;26.90;32.90
22787;DHT22;63134;52.020;4.714;2023-06-14T11:25:39;28.10;31.90
22787;DHT22;63134;52.020;4.714;2023-06-14T11:28:40;29.20;29.30
22787;DHT22;63134;52.020;4.714;2023-06-14T11:31:27;30.30;27.90
22787;DHT22;63134;52.020;4.714;2023-06-14T11:34:13;31.20;27.90
22787;DHT22;63134;52.020;4.714;2023-06-14T11:36:59;32.10;26.60
22787;DHT22;63134;52.020;4.714;2023-06-14T11:39:49;32.70;24.80
22787;DHT22;63134;52.020;4.714;2023-06-14T11:42:35;33.30;23.90
22787;DHT22;63134;52.020;4.714;2023-06-14T11:45:24;33.90;24.50
22787;DHT22;63134;52.020;4.714;2023-06-14T11:48:10;34.70;23.70
22787;DHT22;63134;52.020;4.714;2023-06-14T11:50:55;35.10;22.20
22787;DHT22;63134;52.020;4.714;2023-06-14T11:53:42;35.60;22.10
22787;DHT22;63134;52.020;4.714;2023-06-14T11:56:29;36.00;21.60
22787;DHT22;63134;52.020;4.714;2023-06-14T11:59:17;36.00;21.40
22787;DHT22;63134;52.020;4.714;2023-06-14T12:02:04;36.40;21.20
22787;DHT22;63134;52.020;4.714;2023-06-14T12:04:52;36.60;20.70
22787;DHT22;63134;52.020;4.714;2023-06-14T12:07:40;36.90;20.90
22787;DHT22;63134;52.020;4.714;2023-06-14T12:10:27;37.40;20.20
22787;DHT22;63134;52.020;4.714;2023-06-14T12:13:13;37.80;19.60
22787;DHT22;63134;52.020;4.714;2023-06-14T12:16:02;38.20;19.40
22787;DHT22;63134;52.020;4.714;2023-06-14T12:18:47;38.60;19.40
22787;DHT22;63134;52.020;4.714;2023-06-14T12:21:33;39.00;19.10
22787;DHT22;63134;52.020;4.714;2023-06-14T12:24:21;39.50;19.00
22787;DHT22;63134;52.020;4.714;2023-06-14T12:27:13;40.10;18.50
22787;DHT22;63134;52.020;4.714;2023-06-14T12:30:02;40.70;18.20
22787;DHT22;63134;52.020;4.714;2023-06-14T12:32:48;41.20;18.10
22787;DHT22;63134;52.020;4.714;2023-06-14T12:35:36;41.40;17.70
22787;DHT22;63134;52.020;4.714;2023-06-14T12:38:22;41.60;17.70
22787;DHT22;63134;52.020;4.714;2023-06-14T12:41:08;42.10;17.70
22787;DHT22;63134;52.020;4.714;2023-06-14T12:43:53;42.10;17.10
22787;DHT22;63134;52.020;4.714;2023-06-14T12:46:42;42.40;17.30
22787;DHT22;63134;52.020;4.714;2023-06-14T12:49:28;42.40;17.10
22787;DHT22;63134;52.020;4.714;2023-06-14T12:52:14;42.30;17.10
22787;DHT22;63134;52.020;4.714;2023-06-14T12:54:59;42.20;17.00
22787;DHT22;63134;52.020;4.714;2023-06-14T12:57:44;42.10;17.30
22787;DHT22;63134;52.020;4.714;2023-06-14T13:00:33;42.20;17.30
22787;DHT22;63134;52.020;4.714;2023-06-14T13:03:19;42.30;17.40
22787;DHT22;63134;52.020;4.714;2023-06-14T13:06:05;42.10;17.00
22787;DHT22;63134;52.020;4.714;2023-06-14T13:08:50;42.30;17.10
22787;DHT22;63134;52.020;4.714;2023-06-14T13:11:36;42.30;17.20
22787;DHT22;63134;52.020;4.714;2023-06-14T13:14:22;42.30;16.90
22787;DHT22;63134;52.020;4.714;2023-06-14T13:17:11;42.40;16.60
22787;DHT22;63134;52.020;4.714;2023-06-14T13:19:56;42.80;16.60
22787;DHT22;63134;52.020;4.714;2023-06-14T13:22:42;43.70;16.30
22787;DHT22;63134;52.020;4.714;2023-06-14T13:25:30;43.70;16.50
22787;DHT22;63134;52.020;4.714;2023-06-14T13:28:17;43.80;16.30
22787;DHT22;63134;52.020;4.714;2023-06-14T13:31:09;43.40;16.00
22787;DHT22;63134;52.020;4.714;2023-06-14T13:33:57;43.40;16.00
22787;DHT22;63134;52.020;4.714;2023-06-14T13:36:42;43.40;15.80
22787;DHT22;63134;52.020;4.714;2023-06-14T13:39:28;43.90;16.40
22787;DHT22;63134;52.020;4.714;2023-06-14T13:42:13;44.50;16.50
22787;DHT22;63134;52.020;4.714;2023-06-14T13:44:59;44.50;16.00
22787;DHT22;63134;52.020;4.714;2023-06-14T13:47:44;44.70;15.80
22787;DHT22;63134;52.020;4.714;2023-06-14T13:50:30;44.70;15.60
22787;DHT22;63134;52.020;4.714;2023-06-14T13:53:16;44.40;16.40
22787;DHT22;63134;52.020;4.714;2023-06-14T13:56:04;44.70;16.40
22787;DHT22;63134;52.020;4.714;2023-06-14T13:58:50;44.90;16.00
22787;DHT22;63134;52.020;4.714;2023-06-14T14:01:36;45.00;15.80
22787;DHT22;63134;52.020;4.714;2023-06-14T14:04:21;45.20;15.90
22787;DHT22;63134;52.020;4.714;2023-06-14T14:07:07;45.70;15.50
22787;DHT22;63134;52.020;4.714;2023-06-14T14:09:53;46.10;15.50
22787;DHT22;63134;52.020;4.714;2023-06-14T14:12:39;46.60;15.30
22787;DHT22;63134;52.020;4.714;2023-06-14T14:15:25;47.60;14.80
22787;DHT22;63134;52.020;4.714;2023-06-14T14:18:10;48.00;14.30
22787;DHT22;63134;52.020;4.714;2023-06-14T14:20:56;47.90;14.00
22787;DHT22;63134;52.020;4.714;2023-06-14T14:23:41;47.50;14.10
22787;DHT22;63134;52.020;4.714;2023-06-14T14:26:27;47.40;14.50
22787;DHT22;63134;52.020;4.714;2023-06-14T14:29:13;47.60;14.40
22787;DHT22;63134;52.020;4.714;2023-06-14T14:31:59;48.10;14.40
22787;DHT22;63134;52.020;4.714;2023-06-14T14:34:45;48.70;14.10
22787;DHT22;63134;52.020;4.714;2023-06-14T14:37:33;49.00;14.10
22787;DHT22;63134;52.020;4.714;2023-06-14T14:40:20;48.60;14.20
22787;DHT22;63134;52.020;4.714;2023-06-14T14:43:06;48.00;14.50
22787;DHT22;63134;52.020;4.714;2023-06-14T14:45:52;47.90;14.80
22787;DHT22;63134;52.020;4.714;2023-06-14T14:48:39;47.90;14.70
22787;DHT22;63134;52.020;4.714;2023-06-14T14:51:30;48.30;14.60
22787;DHT22;63134;52.020;4.714;2023-06-14T14:54:16;48.30;14.40
22787;DHT22;63134;52.020;4.714;2023-06-14T14:57:01;47.90;14.60
22787;DHT22;63134;52.020;4.714;2023-06-14T14:59:47;47.60;14.00
22787;DHT22;63134;52.020;4.714;2023-06-14T15:02:33;47.60;13.90
22787;DHT22;63134;52.020;4.714;2023-06-14T15:05:18;47.70;13.60
22787;DHT22;63134;52.020;4.714;2023-06-14T15:08:04;47.90;13.50
22787;DHT22;63134;52.020;4.714;2023-06-14T15:11:01;47.70;13.60
22787;DHT22;63134;52.020;4.714;2023-06-14T15:13:49;47.90;14.00
22787;DHT22;63134;52.020;4.714;2023-06-14T15:16:34;47.70;14.00
22787;DHT22;63134;52.020;4.714;2023-06-14T15:19:20;47.40;14.00
22787;DHT22;63134;52.020;4.714;2023-06-14T15:22:06;47.50;14.10
22787;DHT22;63134;52.020;4.714;2023-06-14T15:24:53;47.50;13.50
22787;DHT22;63134;52.020;4.714;2023-06-14T15:27:41;47.50;13.50
22787;DHT22;63134;52.020;4.714;2023-06-14T15:30:26;47.90;13.40
22787;DHT22;63134;52.020;4.714;2023-06-14T15:33:12;48.50;13.20
22787;DHT22;63134;52.020;4.714;2023-06-14T15:35:57;48.90;13.20
22787;DHT22;63134;52.020;4.714;2023-06-14T15:38:44;48.90;12.80
22787;DHT22;63134;52.020;4.714;2023-06-14T15:41:30;48.50;13.00
22787;DHT22;63134;52.020;4.714;2023-06-14T15:44:15;48.70;13.30
22787;DHT22;63134;52.020;4.714;2023-06-14T15:47:01;49.30;13.20
22787;DHT22;63134;52.020;4.714;2023-06-14T15:49:46;49.80;12.90
22787;DHT22;63134;52.020;4.714;2023-06-14T15:52:32;50.00;12.80
22787;DHT22;63134;52.020;4.714;2023-06-14T15:55:18;50.00;12.90
22787;DHT22;63134;52.020;4.714;2023-06-14T15:58:03;49.90;12.90
22787;DHT22;63134;52.020;4.714;2023-06-14T16:00:49;49.90;12.60
22787;DHT22;63134;52.020;4.714;2023-06-14T16:03:34;49.90;12.70
22787;DHT22;63134;52.020;4.714;2023-06-14T16:06:20;50.30;12.80
22787;DHT22;63134;52.020;4.714;2023-06-14T16:09:05;50.70;12.70
22787;DHT22;63134;52.020;4.714;2023-06-14T16:11:51;50.80;12.90
22787;DHT22;63134;52.020;4.714;2023-06-14T16:14:36;51.00;12.60
22787;DHT22;63134;52.020;4.714;2023-06-14T16:17:22;50.40;12.50
22787;DHT22;63134;52.020;4.714;2023-06-14T16:20:08;49.80;12.70
22787;DHT22;63134;52.020;4.714;2023-06-14T16:22:58;49.20;12.90
22787;DHT22;63134;52.020;4.714;2023-06-14T16:25:43;49.00;13.10
22787;DHT22;63134;52.020;4.714;2023-06-14T16:28:30;49.50;13.20
22787;DHT22;63134;52.020;4.714;2023-06-14T16:31:17;49.80;12.90
22787;DHT22;63134;52.020;4.714;2023-06-14T16:34:04;50.00;12.90
22787;DHT22;63134;52.020;4.714;2023-06-14T16:36:58;50.30;13.00
22787;DHT22;63134;52.020;4.714;2023-06-14T16:40:02;50.20;12.70
22787;DHT22;63134;52.020;4.714;2023-06-14T16:42:50;49.90;12.60
22787;DHT22;63134;52.020;4.714;2023-06-14T16:45:36;49.40;12.70
22787;DHT22;63134;52.020;4.714;2023-06-14T16:48:25;48.70;12.80
22787;DHT22;63134;52.020;4.714;2023-06-14T16:51:11;48.50;13.10
22787;DHT22;63134;52.020;4.714;2023-06-14T16:53:57;49.00;13.20
22787;DHT22;63134;52.020;4.714;2023-06-14T16:56:42;49.30;13.10
22787;DHT22;63134;52.020;4.714;2023-06-14T16:59:28;49.20;12.80
22787;DHT22;63134;52.020;4.714;2023-06-14T17:02:13;49.10;12.70
22787;DHT22;63134;52.020;4.714;2023-06-14T17:04:59;49.00;12.80
22787;DHT22;63134;52.020;4.714;2023-06-14T17:07:45;49.20;12.90
22787;DHT22;63134;52.020;4.714;2023-06-14T17:10:30;49.40;12.90
22787;DHT22;63134;52.020;4.714;2023-06-14T17:13:16;49.40;13.00
22787;DHT22;63134;52.020;4.714;2023-06-14T17:16:02;49.30;13.00
22787;DHT22;63134;52.020;4.714;2023-06-14T17:18:50;49.30;13.00
22787;DHT22;63134;52.020;4.714;2023-06-14T17:21:36;49.40;13.20
22787;DHT22;63134;52.020;4.714;2023-06-14T17:24:23;49.30;13.00
22787;DHT22;63134;52.020;4.714;2023-06-14T17:27:11;49.10;13.20
22787;DHT22;63134;52.020;4.714;2023-06-14T17:29:56;48.70;13.00
22787;DHT22;63134;52.020;4.714;2023-06-14T17:32:42;48.70;13.20
22787;DHT22;63134;52.020;4.714;2023-06-14T17:35:27;48.60;13.30
22787;DHT22;63134;52.020;4.714;2023-06-14T17:38:13;48.20;13.70
22787;DHT22;63134;52.020;4.714;2023-06-14T17:40:58;48.20;13.90
22787;DHT22;63134;52.020;4.714;2023-06-14T17:43:46;48.30;13.80
22787;DHT22;63134;52.020;4.714;2023-06-14T17:46:31;48.20;13.80